< < Back
Terminal Aerodrome Forecast


Current Version              Previous Versions:   1  2  3  4  5  6  7  8  9  

Terminal Aerodrome Forecast

884
FTUS44 KMRX 241533 AAA
TAFCHA
TAF AMD
KCHA 241533Z 2416/2512 22015G25KT P6SM BKN035
     FM241800 24010G20KT P6SM BKN040
     FM250200 24006KT P6SM SCT040
     FM250600 31004KT P6SM SCT120=

Latest METAR

435
SAUS80 KWBC 250100
MTRCHA
METAR KCHA 250053Z 23005KT 10SM FEW250 14/02 A2993 RMK AO2 SLP133
T01440017


USA.gov is the U.S. government's official web portal to all federal, state and local government web resources and services.